Time;durP1;ratioP1;P1;durP2;ratioP2;P2;SDS_P1;SDS_P2;PMS_P1;PMS_P2;Temp;Humidity;BMP_temperature;BMP_pressure;BME280_temperature;BME280_humidity;BME280_pressure;Samples;Min_cycle;Max_cycle;Signal;HPM_P1;HPM_P2
2023/08/29 00:00:13;;;;;;;;;;;15.90;99.90;;;;;;5097853;28;19908;-72
2023/08/29 00:02:41;;;;;;;;;;;15.90;99.90;;;;;;5098831;28;19908;-72
2023/08/29 00:05:07;;;;;;;;;;;15.90;99.90;;;;;;5094630;28;19911;-70
2023/08/29 00:07:33;;;;;;;;;;;15.90;99.90;;;;;;5097438;28;19915;-72
2023/08/29 00:09:58;;;;;;;;;;;15.80;99.90;;;;;;5098458;28;19908;-71
2023/08/29 00:12:24;;;;;;;;;;;15.80;99.90;;;;;;5098279;28;19994;-71
2023/08/29 00:14:49;;;;;;;;;;;15.80;99.90;;;;;;5087680;28;20006;-71
2023/08/29 00:17:16;;;;;;;;;;;15.70;99.90;;;;;;5096326;28;19934;-72
2023/08/29 00:19:41;;;;;;;;;;;15.70;99.90;;;;;;5098614;28;19918;-71
2023/08/29 00:22:07;;;;;;;;;;;15.70;99.90;;;;;;5096686;28;19945;-70
2023/08/29 00:24:33;;;;;;;;;;;15.70;99.90;;;;;;5098291;28;20025;-72
2023/08/29 00:26:58;;;;;;;;;;;15.70;99.90;;;;;;5096718;28;19919;-72
2023/08/29 00:29:26;;;;;;;;;;;15.70;99.90;;;;;;5097018;28;19912;-72
2023/08/29 00:31:51;;;;;;;;;;;15.60;99.90;;;;;;5098158;28;19911;-70
2023/08/29 00:34:17;;;;;;;;;;;15.60;99.90;;;;;;5096720;28;19908;-71
2023/08/29 00:36:43;;;;;;;;;;;15.60;99.90;;;;;;5098256;28;19908;-71
2023/08/29 00:39:08;;;;;;;;;;;15.50;99.90;;;;;;5096761;28;19931;-71
2023/08/29 00:41:34;;;;;;;;;;;15.50;99.90;;;;;;5098119;28;19910;-71
2023/08/29 00:43:59;;;;;;;;;;;15.50;99.90;;;;;;5097892;28;19943;-70
2023/08/29 00:46:25;;;;;;;;;;;15.50;99.90;;;;;;5098175;28;19904;-71
2023/08/29 00:48:50;;;;;;;;;;;15.50;99.90;;;;;;5096829;28;19912;-71
2023/08/29 00:51:17;;;;;;;;;;;15.40;99.90;;;;;;5091734;28;20399;-72
2023/08/29 00:53:43;;;;;;;;;;;15.50;99.90;;;;;;5097682;28;20295;-72
2023/08/29 00:56:09;;;;;;;;;;;15.50;99.90;;;;;;5097813;28;19904;-73
2023/08/29 00:58:35;;;;;;;;;;;15.60;99.90;;;;;;5097959;28;19911;-72
2023/08/29 01:01:01;;;;;;;;;;;15.60;99.90;;;;;;5096175;28;19975;-73
2023/08/29 01:03:26;;;;;;;;;;;15.60;99.90;;;;;;5097758;28;19951;-73
2023/08/29 01:05:52;;;;;;;;;;;15.70;99.90;;;;;;5096274;28;19958;-71
2023/08/29 01:08:17;;;;;;;;;;;15.60;99.90;;;;;;5097786;28;19908;-72
2023/08/29 01:11:00;;;;;;;;;;;15.70;99.90;;;;;;5097190;28;19934;-70
2023/08/29 01:13:44;;;;;;;;;;;15.60;99.90;;;;;;5096068;28;19908;-72
2023/08/29 01:16:10;;;;;;;;;;;15.50;99.90;;;;;;5096220;28;19908;-70
2023/08/29 01:18:40;;;;;;;;;;;15.50;99.90;;;;;;5096037;28;19904;-72
2023/08/29 01:21:30;;;;;;;;;;;15.50;99.90;;;;;;5092326;28;19904;-72
2023/08/29 01:24:18;;;;;;;;;;;15.40;99.90;;;;;;5095529;28;19908;-72
2023/08/29 01:26:45;;;;;;;;;;;15.30;99.90;;;;;;5089198;28;19973;-72
2023/08/29 01:29:10;;;;;;;;;;;15.30;99.90;;;;;;5097236;28;20348;-72
2023/08/29 01:31:37;;;;;;;;;;;15.20;99.90;;;;;;5096882;28;19904;-72
2023/08/29 01:34:03;;;;;;;;;;;15.20;99.90;;;;;;5095766;28;20138;-71
2023/08/29 01:36:41;;;;;;;;;;;15.20;99.90;;;;;;5095870;28;20426;-71
2023/08/29 01:39:07;;;;;;;;;;;15.20;99.90;;;;;;5095386;28;19998;-72
2023/08/29 01:41:33;;;;;;;;;;;15.20;99.90;;;;;;5096904;28;19947;-72
2023/08/29 01:44:01;;;;;;;;;;;15.30;99.90;;;;;;5096445;28;19912;-72
2023/08/29 01:46:26;;;;;;;;;;;15.30;99.90;;;;;;5096657;28;19953;-71
2023/08/29 01:48:52;;;;;;;;;;;15.30;99.90;;;;;;5095206;28;19973;-72
2023/08/29 01:51:18;;;;;;;;;;;15.20;99.90;;;;;;5095542;28;19962;-71
2023/08/29 01:53:43;;;;;;;;;;;15.30;99.90;;;;;;5096418;28;19911;-72
2023/08/29 01:56:11;;;;;;;;;;;15.20;99.90;;;;;;5096440;28;20398;-73
2023/08/29 01:58:37;;;;;;;;;;;15.20;99.90;;;;;;5095369;28;19912;-72
2023/08/29 02:01:03;;;;;;;;;;;15.20;99.90;;;;;;5096550;28;20500;-72
2023/08/29 02:03:28;;;;;;;;;;;15.20;99.90;;;;;;5096565;28;20401;-71
2023/08/29 02:05:53;;;;;;;;;;;15.30;99.90;;;;;;5096414;28;19908;-71
2023/08/29 02:08:19;;;;;;;;;;;15.20;99.90;;;;;;5096651;28;19915;-72
2023/08/29 02:10:45;;;;;;;;;;;15.30;99.90;;;;;;5096107;28;19904;-72
2023/08/29 02:13:10;;;;;;;;;;;15.20;99.90;;;;;;5095247;28;19929;-71
2023/08/29 02:15:36;;;;;;;;;;;15.20;99.90;;;;;;5088530;28;19904;-71
2023/08/29 02:18:02;;;;;;;;;;;15.20;99.90;;;;;;5096559;28;20291;-72
2023/08/29 02:20:28;;;;;;;;;;;15.30;99.90;;;;;;5093236;28;19904;-72
2023/08/29 02:22:53;;;;;;;;;;;15.30;99.90;;;;;;5092006;28;19914;-72
2023/08/29 02:25:19;;;;;;;;;;;15.20;99.90;;;;;;5094682;28;20011;-70
2023/08/29 02:27:44;;;;;;;;;;;15.20;99.90;;;;;;5096022;28;20011;-72
2023/08/29 02:30:10;;;;;;;;;;;15.20;99.90;;;;;;5090880;28;19915;-72
2023/08/29 02:32:37;;;;;;;;;;;15.20;99.90;;;;;;5087822;28;19911;-71
2023/08/29 02:35:03;;;;;;;;;;;15.20;99.90;;;;;;5094481;28;19908;-70
2023/08/29 02:37:29;;;;;;;;;;;15.10;99.90;;;;;;5094097;28;19904;-72
2023/08/29 02:39:54;;;;;;;;;;;15.10;99.90;;;;;;5095791;28;20486;-72
2023/08/29 02:42:20;;;;;;;;;;;15.20;99.90;;;;;;5095950;28;20341;-73
2023/08/29 02:44:45;;;;;;;;;;;15.10;99.90;;;;;;5095852;28;20445;-72
2023/08/29 02:47:11;;;;;;;;;;;15.10;99.90;;;;;;5096040;28;20410;-73
2023/08/29 02:49:36;;;;;;;;;;;15.10;99.90;;;;;;5096130;28;19949;-72
2023/08/29 02:52:02;;;;;;;;;;;15.10;99.90;;;;;;5095876;28;19990;-72
2023/08/29 02:54:27;;;;;;;;;;;15.10;99.90;;;;;;5094084;28;20292;-71
2023/08/29 02:56:53;;;;;;;;;;;15.10;99.90;;;;;;5095455;28;19908;-70
2023/08/29 02:59:18;;;;;;;;;;;15.10;99.90;;;;;;5094538;28;19904;-72
2023/08/29 03:01:44;;;;;;;;;;;15.10;99.90;;;;;;5095237;28;20010;-70
2023/08/29 03:04:09;;;;;;;;;;;15.00;99.90;;;;;;5095839;28;19907;-72
2023/08/29 03:06:35;;;;;;;;;;;15.00;99.90;;;;;;5093214;28;19904;-71
2023/08/29 03:09:01;;;;;;;;;;;15.00;99.90;;;;;;5094907;28;19907;-72
2023/08/29 03:11:26;;;;;;;;;;;15.00;99.90;;;;;;5095372;28;19908;-72
2023/08/29 03:13:52;;;;;;;;;;;15.00;99.90;;;;;;5095615;28;19959;-72
2023/08/29 03:16:17;;;;;;;;;;;15.00;99.90;;;;;;5095654;28;20463;-72
2023/08/29 03:18:43;;;;;;;;;;;15.00;99.90;;;;;;5095769;28;19908;-72
2023/08/29 03:21:09;;;;;;;;;;;15.00;99.90;;;;;;5090601;28;20002;-72
2023/08/29 03:23:35;;;;;;;;;;;15.00;99.90;;;;;;5095430;28;19963;-71
2023/08/29 03:26:08;;;;;;;;;;;15.00;99.90;;;;;;5089831;28;19927;-71
2023/08/29 03:28:34;;;;;;;;;;;15.00;99.90;;;;;;5095548;28;20042;-71
2023/08/29 03:31:13;;;;;;;;;;;15.10;99.90;;;;;;5081967;28;19946;-72
2023/08/29 03:33:42;;;;;;;;;;;15.10;99.90;;;;;;5095355;28;19908;-72
2023/08/29 03:36:08;;;;;;;;;;;15.10;99.90;;;;;;5093227;28;19915;-73
2023/08/29 03:38:35;;;;;;;;;;;15.10;99.90;;;;;;5095612;28;19911;-71
2023/08/29 03:41:01;;;;;;;;;;;15.10;99.90;;;;;;5095195;28;19908;-71
2023/08/29 03:43:27;;;;;;;;;;;15.10;99.90;;;;;;5093914;28;20395;-72
2023/08/29 03:45:57;;;;;;;;;;;15.10;99.90;;;;;;5095369;28;19912;-73
2023/08/29 03:48:22;;;;;;;;;;;15.10;99.90;;;;;;5095213;28;19951;-74
2023/08/29 03:50:48;;;;;;;;;;;15.10;99.90;;;;;;5097725;28;19911;-72
2023/08/29 03:53:14;;;;;;;;;;;15.20;99.90;;;;;;5098718;28;20384;-72
2023/08/29 03:55:39;;;;;;;;;;;15.20;99.90;;;;;;5098804;28;20386;-72
2023/08/29 03:58:05;;;;;;;;;;;15.20;99.90;;;;;;5098852;28;20466;-72
2023/08/29 04:00:31;;;;;;;;;;;15.20;99.90;;;;;;5097626;28;20358;-72
2023/08/29 04:02:56;;;;;;;;;;;15.20;99.90;;;;;;5097480;28;19908;-73
2023/08/29 04:05:22;;;;;;;;;;;15.20;99.90;;;;;;5098927;28;19911;-72
2023/08/29 04:07:47;;;;;;;;;;;15.20;99.90;;;;;;5087692;28;19915;-72
2023/08/29 04:10:13;;;;;;;;;;;15.10;99.90;;;;;;5093644;28;19919;-72
2023/08/29 04:12:38;;;;;;;;;;;15.10;99.90;;;;;;5098517;28;20002;-72
2023/08/29 04:15:04;;;;;;;;;;;15.10;99.90;;;;;;5096092;28;20346;-72
2023/08/29 04:17:30;;;;;;;;;;;15.00;99.90;;;;;;5098297;28;19957;-72
2023/08/29 04:19:55;;;;;;;;;;;15.00;99.90;;;;;;5097158;28;19904;-70
2023/08/29 04:22:21;;;;;;;;;;;15.00;99.90;;;;;;5095864;28;19992;-71
2023/08/29 04:24:48;;;;;;;;;;;15.00;99.90;;;;;;5098156;28;19919;-72
2023/08/29 04:27:14;;;;;;;;;;;15.00;99.90;;;;;;5097021;28;19915;-72
2023/08/29 04:29:39;;;;;;;;;;;15.00;99.90;;;;;;5097490;28;19904;-72
2023/08/29 04:32:05;;;;;;;;;;;15.10;99.90;;;;;;5097956;28;20457;-72
2023/08/29 04:34:30;;;;;;;;;;;15.00;99.90;;;;;;5098258;28;20381;-72
2023/08/29 04:36:56;;;;;;;;;;;15.00;99.90;;;;;;5097642;28;19904;-72
2023/08/29 04:39:22;;;;;;;;;;;15.00;99.90;;;;;;5097890;28;19904;-72
2023/08/29 04:41:49;;;;;;;;;;;15.10;99.90;;;;;;5084711;28;19915;-72
2023/08/29 04:44:15;;;;;;;;;;;15.00;99.90;;;;;;5098122;28;20005;-73
2023/08/29 04:46:40;;;;;;;;;;;15.00;99.90;;;;;;5098223;28;19932;-73
2023/08/29 04:49:06;;;;;;;;;;;15.00;99.90;;;;;;5098125;28;19905;-72
2023/08/29 04:51:34;;;;;;;;;;;15.00;99.90;;;;;;5096410;28;19943;-72
2023/08/29 04:54:00;;;;;;;;;;;15.00;99.90;;;;;;5097865;28;19940;-71
2023/08/29 04:56:26;;;;;;;;;;;14.90;99.90;;;;;;5097891;28;19912;-73
2023/08/29 04:58:51;;;;;;;;;;;14.90;99.90;;;;;;5097726;28;19955;-73
2023/08/29 05:01:17;;;;;;;;;;;14.90;99.90;;;;;;5095638;28;19911;-73
2023/08/29 05:03:43;;;;;;;;;;;14.90;99.90;;;;;;5097863;28;20789;-72
2023/08/29 05:06:08;;;;;;;;;;;14.80;99.90;;;;;;5097142;28;19908;-73
2023/08/29 05:08:36;;;;;;;;;;;14.80;99.90;;;;;;5097278;28;19907;-73
2023/08/29 05:11:02;;;;;;;;;;;14.70;99.90;;;;;;5096242;28;19904;-72
2023/08/29 05:13:28;;;;;;;;;;;14.70;99.90;;;;;;5096025;28;19914;-73
2023/08/29 05:15:53;;;;;;;;;;;14.70;99.90;;;;;;5095834;28;19911;-72
2023/08/29 05:18:19;;;;;;;;;;;14.70;99.90;;;;;;5096172;28;19948;-72
2023/08/29 05:20:44;;;;;;;;;;;14.60;99.90;;;;;;5092394;28;19915;-73
2023/08/29 05:23:10;;;;;;;;;;;14.60;99.90;;;;;;5097409;28;19908;-72
2023/08/29 05:25:35;;;;;;;;;;;14.60;99.90;;;;;;5095715;28;20295;-73
2023/08/29 05:28:01;;;;;;;;;;;14.60;99.90;;;;;;5097077;28;19904;-73
2023/08/29 05:30:27;;;;;;;;;;;14.60;99.90;;;;;;5095677;28;19904;-73
2023/08/29 05:32:53;;;;;;;;;;;14.60;99.90;;;;;;5096965;28;19908;-71
2023/08/29 05:35:18;;;;;;;;;;;14.60;99.90;;;;;;5095585;28;20309;-73
2023/08/29 05:37:44;;;;;;;;;;;14.60;99.90;;;;;;5095917;28;19912;-73
2023/08/29 05:40:10;;;;;;;;;;;14.70;99.90;;;;;;5096604;28;19973;-72
2023/08/29 05:42:35;;;;;;;;;;;14.70;99.90;;;;;;5095819;28;20349;-72
2023/08/29 05:45:01;;;;;;;;;;;14.70;99.90;;;;;;5093970;28;19904;-73
2023/08/29 05:47:27;;;;;;;;;;;14.70;99.90;;;;;;5096957;28;19904;-73
2023/08/29 05:49:53;;;;;;;;;;;14.70;99.90;;;;;;5095571;28;19912;-74
2023/08/29 05:52:18;;;;;;;;;;;14.80;99.90;;;;;;5095495;28;19908;-73
2023/08/29 05:54:44;;;;;;;;;;;14.80;99.90;;;;;;5096550;28;19948;-74
2023/08/29 05:57:09;;;;;;;;;;;14.90;99.90;;;;;;5081997;28;19919;-72
2023/08/29 05:59:35;;;;;;;;;;;14.90;99.90;;;;;;5095770;28;19908;-74
2023/08/29 06:02:00;;;;;;;;;;;14.90;99.90;;;;;;5094587;28;19904;-75
2023/08/29 06:04:26;;;;;;;;;;;15.00;99.90;;;;;;5096408;28;19915;-71
2023/08/29 06:06:51;;;;;;;;;;;15.00;99.90;;;;;;5095303;28;20287;-74
2023/08/29 06:09:18;;;;;;;;;;;15.10;99.90;;;;;;5096173;28;19950;-74
2023/08/29 06:11:43;;;;;;;;;;;15.20;99.90;;;;;;5096289;28;19934;-74
2023/08/29 06:14:09;;;;;;;;;;;15.20;99.90;;;;;;5096592;28;19933;-73
2023/08/29 06:16:34;;;;;;;;;;;15.30;99.90;;;;;;5095072;28;20386;-74
2023/08/29 06:19:00;;;;;;;;;;;15.40;99.90;;;;;;5096199;28;19915;-74
2023/08/29 06:21:25;;;;;;;;;;;15.50;99.90;;;;;;5096396;28;19908;-74
2023/08/29 06:23:51;;;;;;;;;;;15.50;99.90;;;;;;5096074;28;19904;-74
2023/08/29 06:26:16;;;;;;;;;;;15.60;99.90;;;;;;5096095;28;20285;-74
2023/08/29 06:28:42;;;;;;;;;;;15.60;99.90;;;;;;5096217;28;20295;-74
2023/08/29 06:31:08;;;;;;;;;;;15.60;99.90;;;;;;5096295;28;19930;-75
2023/08/29 06:33:34;;;;;;;;;;;15.70;99.90;;;;;;5095974;28;20283;-75
2023/08/29 06:36:00;;;;;;;;;;;15.80;99.90;;;;;;5094843;28;19949;-74
2023/08/29 06:38:25;;;;;;;;;;;15.90;99.90;;;;;;5095742;28;19908;-74
2023/08/29 06:40:55;;;;;;;;;;;16.00;99.90;;;;;;5095952;28;19912;-75
2023/08/29 06:43:20;;;;;;;;;;;16.10;99.90;;;;;;5095869;28;19908;-75
2023/08/29 06:45:46;;;;;;;;;;;16.10;99.90;;;;;;5096085;28;19962;-73
2023/08/29 06:48:12;;;;;;;;;;;16.20;99.90;;;;;;5095990;28;19908;-74
2023/08/29 06:50:37;;;;;;;;;;;16.20;99.90;;;;;;5095727;28;19908;-73
2023/08/29 06:53:03;;;;;;;;;;;16.20;99.90;;;;;;5095798;28;19912;-75
2023/08/29 06:55:31;;;;;;;;;;;16.20;99.90;;;;;;5096136;28;19904;-74
2023/08/29 06:57:57;;;;;;;;;;;16.20;99.90;;;;;;5095505;28;19987;-73
2023/08/29 07:00:23;;;;;;;;;;;16.20;99.90;;;;;;5086356;28;19955;-74
2023/08/29 07:02:49;;;;;;;;;;;16.20;99.90;;;;;;5096170;28;19915;-74
2023/08/29 07:05:15;;;;;;;;;;;16.20;99.90;;;;;;5095874;28;19903;-74
2023/08/29 07:07:40;;;;;;;;;;;16.20;99.90;;;;;;5095652;28;20376;-71
2023/08/29 07:10:06;;;;;;;;;;;16.20;99.90;;;;;;5082014;28;19957;-72
2023/08/29 07:12:32;;;;;;;;;;;16.30;99.90;;;;;;5094355;28;19950;-73
2023/08/29 07:14:58;;;;;;;;;;;16.50;99.90;;;;;;5085978;28;19911;-74
2023/08/29 07:17:24;;;;;;;;;;;16.60;99.90;;;;;;5095618;28;20049;-74
2023/08/29 07:19:49;;;;;;;;;;;16.70;99.90;;;;;;5095762;28;20034;-76
2023/08/29 07:22:16;;;;;;;;;;;16.80;99.90;;;;;;5091937;28;20253;-76
2023/08/29 07:24:43;;;;;;;;;;;16.90;99.90;;;;;;5097445;28;19961;-76
2023/08/29 07:27:08;;;;;;;;;;;17.00;99.90;;;;;;5099141;28;19962;-77
2023/08/29 07:29:34;;;;;;;;;;;17.00;99.90;;;;;;5099515;28;20268;-74
2023/08/29 07:32:00;;;;;;;;;;;17.10;99.90;;;;;;5097541;28;19908;-73
2023/08/29 07:34:25;;;;;;;;;;;17.10;99.90;;;;;;5098174;28;19908;-73
2023/08/29 07:36:51;;;;;;;;;;;17.20;99.90;;;;;;5099429;28;19982;-72
2023/08/29 07:39:18;;;;;;;;;;;17.30;99.90;;;;;;5097930;28;19943;-71
2023/08/29 07:41:45;;;;;;;;;;;17.30;99.90;;;;;;5095156;28;19919;-73
2023/08/29 07:44:10;;;;;;;;;;;17.50;99.90;;;;;;5089460;28;19911;-73
2023/08/29 07:46:36;;;;;;;;;;;17.60;99.90;;;;;;5085694;28;19904;-73
2023/08/29 07:49:01;;;;;;;;;;;17.60;99.90;;;;;;5098233;28;19939;-74
2023/08/29 07:51:27;;;;;;;;;;;17.80;99.90;;;;;;5097911;28;20371;-72
2023/08/29 07:53:52;;;;;;;;;;;17.80;99.90;;;;;;5098287;28;19916;-75
2023/08/29 07:56:18;;;;;;;;;;;17.80;99.90;;;;;;5099130;28;19944;-74
2023/08/29 07:58:43;;;;;;;;;;;17.80;99.90;;;;;;5098319;28;19904;-73
2023/08/29 08:01:09;;;;;;;;;;;18.00;99.90;;;;;;5098615;28;19998;-75
2023/08/29 08:03:34;;;;;;;;;;;18.10;99.90;;;;;;5097614;28;19994;-74
2023/08/29 08:06:00;;;;;;;;;;;18.20;99.90;;;;;;5098946;28;19933;-75
2023/08/29 08:08:25;;;;;;;;;;;18.30;99.90;;;;;;5097115;28;19904;-73
2023/08/29 08:10:51;;;;;;;;;;;18.30;99.90;;;;;;5098831;28;19904;-73
2023/08/29 08:13:16;;;;;;;;;;;18.40;99.90;;;;;;5098706;28;19908;-73
2023/08/29 08:15:42;;;;;;;;;;;18.40;99.90;;;;;;5095876;28;19904;-73
2023/08/29 08:18:08;;;;;;;;;;;18.50;99.90;;;;;;5093774;28;19904;-74
2023/08/29 08:20:33;;;;;;;;;;;18.60;99.90;;;;;;5095637;28;19919;-74
2023/08/29 08:22:59;;;;;;;;;;;18.70;99.90;;;;;;5093803;28;19912;-74
2023/08/29 08:25:25;;;;;;;;;;;18.80;99.90;;;;;;5098153;28;19916;-73
2023/08/29 08:27:51;;;;;;;;;;;18.90;99.90;;;;;;5098486;28;19912;-72
2023/08/29 08:30:16;;;;;;;;;;;19.00;99.90;;;;;;5098755;28;19904;-73
2023/08/29 08:32:43;;;;;;;;;;;19.00;99.90;;;;;;5095987;28;19907;-73
2023/08/29 08:35:09;;;;;;;;;;;19.10;99.90;;;;;;5097044;28;20361;-73
2023/08/29 08:37:35;;;;;;;;;;;19.00;99.90;;;;;;5097144;28;19999;-72
2023/08/29 08:40:09;;;;;;;;;;;19.00;99.90;;;;;;5096480;28;19950;-72
2023/08/29 08:42:35;;;;;;;;;;;19.00;99.90;;;;;;5098187;28;19908;-73
2023/08/29 08:45:04;;;;;;;;;;;19.00;99.90;;;;;;5097890;28;19912;-74
2023/08/29 08:47:30;;;;;;;;;;;19.20;99.90;;;;;;5098581;28;19912;-74
2023/08/29 08:49:55;;;;;;;;;;;19.30;99.90;;;;;;5097897;28;20380;-73
2023/08/29 08:52:21;;;;;;;;;;;19.40;99.90;;;;;;5097407;28;19918;-74
2023/08/29 08:54:46;;;;;;;;;;;19.50;99.90;;;;;;5097821;28;19907;-74
2023/08/29 08:57:13;;;;;;;;;;;19.50;99.90;;;;;;5097877;28;19904;-73
2023/08/29 08:59:39;;;;;;;;;;;19.70;99.90;;;;;;5096376;28;19904;-73
2023/08/29 09:02:08;;;;;;;;;;;19.70;99.90;;;;;;5098086;28;19947;-73
2023/08/29 09:04:34;;;;;;;;;;;19.50;99.90;;;;;;5095425;28;19904;-73
2023/08/29 09:07:00;;;;;;;;;;;19.60;99.90;;;;;;5096295;28;19923;-73
2023/08/29 09:09:25;;;;;;;;;;;19.50;99.90;;;;;;5097400;28;19908;-72
2023/08/29 09:11:55;;;;;;;;;;;19.60;99.90;;;;;;5097698;28;19904;-73
2023/08/29 09:14:21;;;;;;;;;;;19.70;99.90;;;;;;5097578;28;19950;-72
2023/08/29 09:16:46;;;;;;;;;;;19.80;99.90;;;;;;5096418;28;19904;-73
2023/08/29 09:19:13;;;;;;;;;;;19.90;99.90;;;;;;5097419;28;19908;-72
2023/08/29 09:21:41;;;;;;;;;;;19.80;99.90;;;;;;5096036;28;19943;-74
2023/08/29 09:24:10;;;;;;;;;;;19.80;99.90;;;;;;5095766;28;19911;-72
2023/08/29 09:26:35;;;;;;;;;;;19.90;99.90;;;;;;5097555;28;20720;-73
2023/08/29 09:29:15;;;;;;;;;;;19.90;99.90;;;;;;5097086;28;20035;-72
2023/08/29 09:31:40;;;;;;;;;;;20.10;99.90;;;;;;5097357;28;19908;-72
2023/08/29 09:34:06;;;;;;;;;;;20.00;99.90;;;;;;5097129;28;19918;-73
2023/08/29 09:36:33;;;;;;;;;;;20.00;99.90;;;;;;5096163;28;20383;-74
2023/08/29 09:38:58;;;;;;;;;;;20.20;99.90;;;;;;5082512;28;19935;-72
2023/08/29 09:41:24;;;;;;;;;;;20.30;99.90;;;;;;5087531;28;19905;-73
2023/08/29 09:43:49;;;;;;;;;;;20.30;99.90;;;;;;5085188;28;19908;-74
2023/08/29 09:46:25;;;;;;;;;;;20.20;99.90;;;;;;5077505;28;19904;-73
2023/08/29 09:48:55;;;;;;;;;;;20.00;99.90;;;;;;5088134;28;19908;-72
2023/08/29 09:51:22;;;;;;;;;;;20.10;99.90;;;;;;5090857;28;19991;-72
2023/08/29 09:53:48;;;;;;;;;;;20.20;99.90;;;;;;5094714;28;19942;-73
2023/08/29 09:56:14;;;;;;;;;;;20.20;99.90;;;;;;5088710;28;20293;-74
2023/08/29 09:58:41;;;;;;;;;;;20.10;99.90;;;;;;5094108;28;19969;-72
2023/08/29 10:01:08;;;;;;;;;;;20.20;99.90;;;;;;5094277;28;19908;-74
2023/08/29 10:03:34;;;;;;;;;;;20.50;99.90;;;;;;5093144;28;19908;-73
2023/08/29 10:06:05;;;;;;;;;;;20.60;99.90;;;;;;5090827;28;19919;-73
2023/08/29 10:08:33;;;;;;;;;;;20.60;99.90;;;;;;5094313;28;19911;-72
2023/08/29 10:10:59;;;;;;;;;;;20.40;99.90;;;;;;5092191;28;19912;-74
2023/08/29 10:13:25;;;;;;;;;;;20.50;99.90;;;;;;5094892;28;19912;-73
2023/08/29 10:15:51;;;;;;;;;;;20.50;99.90;;;;;;5090771;28;19905;-75
2023/08/29 10:18:18;;;;;;;;;;;20.50;99.90;;;;;;5092915;28;19908;-72
2023/08/29 10:20:44;;;;;;;;;;;20.30;99.90;;;;;;5091346;28;19915;-72
2023/08/29 10:23:10;;;;;;;;;;;20.30;99.90;;;;;;5095311;28;19908;-72
2023/08/29 10:25:36;;;;;;;;;;;20.50;99.90;;;;;;5089408;28;19970;-72
2023/08/29 10:28:02;;;;;;;;;;;20.50;99.90;;;;;;5092703;28;19903;-72
2023/08/29 10:30:29;;;;;;;;;;;20.60;99.90;;;;;;5092757;28;20261;-72
2023/08/29 10:32:55;;;;;;;;;;;20.80;99.90;;;;;;5093250;28;19908;-73
2023/08/29 10:35:23;;;;;;;;;;;21.00;99.90;;;;;;5091475;28;19919;-72
2023/08/29 10:37:50;;;;;;;;;;;21.30;99.90;;;;;;5089186;28;20023;-72
2023/08/29 10:40:17;;;;;;;;;;;21.40;99.90;;;;;;5092432;28;19908;-72
2023/08/29 10:42:57;;;;;;;;;;;21.40;99.90;;;;;;5094817;28;19943;-73
2023/08/29 10:45:43;;;;;;;;;;;21.40;99.90;;;;;;5089416;28;19915;-73
2023/08/29 10:48:09;;;;;;;;;;;21.20;99.90;;;;;;5090802;28;20267;-73
2023/08/29 10:50:36;;;;;;;;;;;21.00;99.90;;;;;;5091642;28;19903;-73
2023/08/29 10:53:02;;;;;;;;;;;21.00;99.90;;;;;;5090802;28;19912;-73
2023/08/29 10:55:28;;;;;;;;;;;21.10;99.90;;;;;;5092382;28;19912;-73
2023/08/29 10:57:58;;;;;;;;;;;21.30;99.90;;;;;;5086480;28;19909;-73
2023/08/29 11:00:39;;;;;;;;;;;21.50;99.90;;;;;;5093559;28;19908;-74
2023/08/29 11:03:05;;;;;;;;;;;21.50;99.90;;;;;;5090694;28;19999;-73
2023/08/29 11:05:30;;;;;;;;;;;21.20;99.90;;;;;;5090891;28;19940;-72
2023/08/29 11:08:15;;;;;;;;;;;20.90;99.90;;;;;;5093338;28;19904;-74
2023/08/29 11:10:40;;;;;;;;;;;20.90;99.90;;;;;;5089395;28;19905;-75
2023/08/29 11:13:07;;;;;;;;;;;21.10;99.90;;;;;;5092530;28;19915;-71
2023/08/29 11:15:48;;;;;;;;;;;21.30;99.90;;;;;;5091087;28;19904;-72
2023/08/29 11:18:30;;;;;;;;;;;21.40;99.90;;;;;;5088833;28;19911;-72
2023/08/29 11:20:55;;;;;;;;;;;21.50;99.90;;;;;;5091519;28;19905;-73
2023/08/29 11:23:21;;;;;;;;;;;21.50;99.90;;;;;;5094537;28;19911;-72
2023/08/29 11:25:50;;;;;;;;;;;21.40;99.90;;;;;;5089398;28;20003;-72
2023/08/29 11:28:16;;;;;;;;;;;21.20;99.90;;;;;;5088195;28;19904;-73
2023/08/29 11:30:42;;;;;;;;;;;21.10;99.90;;;;;;5091299;28;20280;-74
2023/08/29 11:33:08;;;;;;;;;;;21.10;99.90;;;;;;5092851;28;19922;-73
2023/08/29 11:35:33;;;;;;;;;;;21.20;99.90;;;;;;5092194;28;19908;-73
2023/08/29 11:37:59;;;;;;;;;;;21.10;99.90;;;;;;5090846;28;20023;-73
2023/08/29 11:40:24;;;;;;;;;;;21.20;99.90;;;;;;5090292;28;19987;-73
2023/08/29 11:42:50;;;;;;;;;;;21.30;99.90;;;;;;5093649;28;19950;-73
2023/08/29 11:45:16;;;;;;;;;;;21.40;99.90;;;;;;5089826;28;19904;-73
2023/08/29 11:47:41;;;;;;;;;;;21.50;99.90;;;;;;5094562;28;19904;-74
2023/08/29 11:50:07;;;;;;;;;;;21.50;99.90;;;;;;5089378;28;19974;-73
2023/08/29 11:52:33;;;;;;;;;;;21.50;99.90;;;;;;5089849;28;19929;-75
2023/08/29 11:55:01;;;;;;;;;;;21.60;99.90;;;;;;5091991;28;19912;-75
2023/08/29 11:57:30;;;;;;;;;;;21.50;99.90;;;;;;5089526;28;20442;-74
2023/08/29 11:59:56;;;;;;;;;;;21.40;99.90;;;;;;5091947;28;19931;-72
2023/08/29 12:02:22;;;;;;;;;;;21.40;99.90;;;;;;5091004;28;19904;-73
2023/08/29 12:04:52;;;;;;;;;;;21.30;99.90;;;;;;5089632;28;20241;-72
2023/08/29 12:07:18;;;;;;;;;;;21.30;99.90;;;;;;5091701;28;19968;-74
2023/08/29 12:09:47;;;;;;;;;;;21.30;99.90;;;;;;5094287;28;20372;-72
2023/08/29 12:12:28;;;;;;;;;;;21.30;99.90;;;;;;5093702;28;20007;-72
2023/08/29 12:14:53;;;;;;;;;;;21.20;99.90;;;;;;5091260;28;19908;-74
2023/08/29 12:17:19;;;;;;;;;;;21.50;99.90;;;;;;5091596;28;20280;-73
2023/08/29 12:19:48;;;;;;;;;;;21.70;99.90;;;;;;5095472;28;19904;-72
2023/08/29 12:22:19;;;;;;;;;;;22.00;99.90;;;;;;5092865;28;19912;-74
2023/08/29 12:25:00;;;;;;;;;;;22.20;99.90;;;;;;5093481;28;19924;-73
2023/08/29 12:27:25;;;;;;;;;;;22.40;99.90;;;;;;5094090;28;19904;-71
2023/08/29 12:29:51;;;;;;;;;;;22.40;99.90;;;;;;5097055;28;19908;-73
2023/08/29 12:32:16;;;;;;;;;;;22.30;99.90;;;;;;5090766;28;20360;-72
2023/08/29 12:34:43;;;;;;;;;;;22.10;99.90;;;;;;5095354;28;20675;-74
2023/08/29 12:37:09;;;;;;;;;;;22.00;99.90;;;;;;5091750;28;19909;-71
2023/08/29 12:39:35;;;;;;;;;;;21.90;99.90;;;;;;5092440;28;20013;-73
2023/08/29 12:42:01;;;;;;;;;;;21.90;99.90;;;;;;5096020;28;19908;-75
2023/08/29 12:44:26;;;;;;;;;;;22.00;99.90;;;;;;5094285;28;19908;-76
2023/08/29 12:46:52;;;;;;;;;;;22.00;99.90;;;;;;5091457;28;19904;-72
2023/08/29 12:49:17;;;;;;;;;;;22.00;99.90;;;;;;5096692;28;19904;-76
2023/08/29 12:51:43;;;;;;;;;;;22.00;99.90;;;;;;5092193;28;19947;-74
2023/08/29 12:54:08;;;;;;;;;;;21.90;99.90;;;;;;5093416;28;19929;-77
2023/08/29 12:56:34;;;;;;;;;;;22.10;99.90;;;;;;5094921;28;19932;-78
2023/08/29 12:58:59;;;;;;;;;;;22.20;99.90;;;;;;5093474;28;19908;-76
2023/08/29 13:01:27;;;;;;;;;;;22.30;99.90;;;;;;5096338;28;19908;-76
2023/08/29 13:03:56;;;;;;;;;;;22.50;99.90;;;;;;5095122;28;19953;-76
2023/08/29 13:06:22;;;;;;;;;;;22.50;99.90;;;;;;5095160;28;19987;-75
2023/08/29 13:08:47;;;;;;;;;;;22.50;99.90;;;;;;5094205;28;20016;-76
2023/08/29 13:11:13;;;;;;;;;;;22.40;99.90;;;;;;5095370;28;19965;-76
2023/08/29 13:13:38;;;;;;;;;;;22.50;99.90;;;;;;5093983;28;20429;-77
2023/08/29 13:16:04;;;;;;;;;;;22.40;99.90;;;;;;5093992;28;20439;-78
2023/08/29 13:18:29;;;;;;;;;;;22.50;99.90;;;;;;5094575;28;19955;-76
2023/08/29 13:20:55;;;;;;;;;;;22.30;99.90;;;;;;5092248;28;19908;-80
2023/08/29 13:23:20;;;;;;;;;;;22.40;99.90;;;;;;5094422;28;20345;-80
2023/08/29 13:25:46;;;;;;;;;;;22.40;99.90;;;;;;5091048;28;19920;-77
2023/08/29 13:28:12;;;;;;;;;;;22.50;99.90;;;;;;5094741;28;19915;-74
2023/08/29 13:30:37;;;;;;;;;;;22.40;99.90;;;;;;5093321;28;19908;-77
2023/08/29 13:33:03;;;;;;;;;;;22.30;99.90;;;;;;5092940;28;20358;-78
2023/08/29 13:35:30;;;;;;;;;;;22.20;99.90;;;;;;5092305;28;19920;-78
2023/08/29 13:37:55;;;;;;;;;;;22.20;99.90;;;;;;5096024;28;19911;-77
2023/08/29 13:40:21;;;;;;;;;;;22.10;99.90;;;;;;5095810;28;20357;-75
2023/08/29 13:42:47;;;;;;;;;;;22.10;99.90;;;;;;5095459;28;20356;-74
2023/08/29 13:45:13;;;;;;;;;;;22.00;99.90;;;;;;5094253;28;19971;-77
2023/08/29 13:47:39;;;;;;;;;;;21.90;99.90;;;;;;5093366;28;19919;-75
2023/08/29 13:50:05;;;;;;;;;;;21.80;99.90;;;;;;5094465;28;19904;-76
2023/08/29 13:52:30;;;;;;;;;;;21.90;99.90;;;;;;5093955;28;19915;-76
2023/08/29 13:54:56;;;;;;;;;;;21.90;99.90;;;;;;5092811;28;19915;-76
2023/08/29 13:57:21;;;;;;;;;;;22.00;99.90;;;;;;5093542;28;19907;-77
2023/08/29 13:59:47;;;;;;;;;;;22.20;99.90;;;;;;5089922;28;19915;-80
2023/08/29 14:02:13;;;;;;;;;;;22.20;99.90;;;;;;5092682;28;19904;-74
2023/08/29 14:04:38;;;;;;;;;;;22.10;99.90;;;;;;5092037;28;19908;-73
2023/08/29 14:07:04;;;;;;;;;;;22.00;99.90;;;;;;5094840;28;19908;-74
2023/08/29 14:09:29;;;;;;;;;;;22.10;99.90;;;;;;5095247;28;19907;-75
2023/08/29 14:11:55;;;;;;;;;;;22.20;99.90;;;;;;5095264;28;20372;-76